sensor_id;sensor_type;location;lat;lon;timestamp;temperature;humidity
74513;DHT22;62992;52.052;8.550;2022-09-17T00:01:01;11.60;99.90
74513;DHT22;62992;52.052;8.550;2022-09-17T00:03:27;11.60;99.90
74513;DHT22;62992;52.052;8.550;2022-09-17T00:06:05;11.60;99.90
74513;DHT22;62992;52.052;8.550;2022-09-17T00:08:32;11.70;99.90
74513;DHT22;62992;52.052;8.550;2022-09-17T00:11:04;11.70;99.90
74513;DHT22;62992;52.052;8.550;2022-09-17T00:13:30;11.60;99.90
74513;DHT22;62992;52.052;8.550;2022-09-17T00:15:56;11.50;99.90
74513;DHT22;62992;52.052;8.550;2022-09-17T00:18:21;11.60;99.90
74513;DHT22;62992;52.052;8.550;2022-09-17T00:20:47;11.60;99.90
74513;DHT22;62992;52.052;8.550;2022-09-17T00:23:13;11.60;99.90
74513;DHT22;62992;52.052;8.550;2022-09-17T00:25:41;11.60;99.90
74513;DHT22;62992;52.052;8.550;2022-09-17T00:28:08;11.60;99.90
74513;DHT22;62992;52.052;8.550;2022-09-17T00:30:34;11.60;99.90
74513;DHT22;62992;52.052;8.550;2022-09-17T00:33:00;11.60;99.90
74513;DHT22;62992;52.052;8.550;2022-09-17T00:35:26;11.60;99.90
74513;DHT22;62992;52.052;8.550;2022-09-17T00:37:52;11.60;99.90
74513;DHT22;62992;52.052;8.550;2022-09-17T00:40:19;11.70;99.90
74513;DHT22;62992;52.052;8.550;2022-09-17T00:42:44;11.60;99.90
74513;DHT22;62992;52.052;8.550;2022-09-17T00:45:11;11.60;99.90
74513;DHT22;62992;52.052;8.550;2022-09-17T00:47:42;11.50;99.90
74513;DHT22;62992;52.052;8.550;2022-09-17T00:50:24;11.50;99.90
74513;DHT22;62992;52.052;8.550;2022-09-17T00:53:15;11.60;99.90
74513;DHT22;62992;52.052;8.550;2022-09-17T00:55:46;11.50;99.90
74513;DHT22;62992;52.052;8.550;2022-09-17T00:58:15;11.60;99.90
74513;DHT22;62992;52.052;8.550;2022-09-17T01:00:43;11.50;99.90
74513;DHT22;62992;52.052;8.550;2022-09-17T01:03:09;11.60;99.90
74513;DHT22;62992;52.052;8.550;2022-09-17T01:05:50;11.60;99.90
74513;DHT22;62992;52.052;8.550;2022-09-17T01:08:24;11.50;99.90
74513;DHT22;62992;52.052;8.550;2022-09-17T01:22:28;11.60;99.90
74513;DHT22;62992;52.052;8.550;2022-09-17T01:30:37;11.50;99.90
74513;DHT22;62992;52.052;8.550;2022-09-17T01:41:42;11.40;99.90
74513;DHT22;62992;52.052;8.550;2022-09-17T01:44:28;11.40;99.90
74513;DHT22;62992;52.052;8.550;2022-09-17T01:47:19;11.40;99.90
74513;DHT22;62992;52.052;8.550;2022-09-17T01:49:49;11.40;99.90
74513;DHT22;62992;52.052;8.550;2022-09-17T01:52:16;11.40;99.90
74513;DHT22;62992;52.052;8.550;2022-09-17T01:54:45;11.40;99.90
74513;DHT22;62992;52.052;8.550;2022-09-17T01:57:33;11.30;99.90
74513;DHT22;62992;52.052;8.550;2022-09-17T02:00:07;11.40;99.90
74513;DHT22;62992;52.052;8.550;2022-09-17T02:03:06;11.40;99.90
74513;DHT22;62992;52.052;8.550;2022-09-17T02:05:54;11.40;99.90
74513;DHT22;62992;52.052;8.550;2022-09-17T02:08:27;11.40;99.90
74513;DHT22;62992;52.052;8.550;2022-09-17T02:11:04;11.30;99.90
74513;DHT22;62992;52.052;8.550;2022-09-17T02:13:39;11.30;99.90
74513;DHT22;62992;52.052;8.550;2022-09-17T02:16:16;11.30;99.90
74513;DHT22;62992;52.052;8.550;2022-09-17T02:21:47;11.10;99.90
74513;DHT22;62992;52.052;8.550;2022-09-17T02:29:44;11.10;99.90
74513;DHT22;62992;52.052;8.550;2022-09-17T02:32:11;11.10;99.90
74513;DHT22;62992;52.052;8.550;2022-09-17T02:34:37;11.10;99.90
74513;DHT22;62992;52.052;8.550;2022-09-17T02:37:04;11.20;99.90
74513;DHT22;62992;52.052;8.550;2022-09-17T02:39:30;11.10;99.90
74513;DHT22;62992;52.052;8.550;2022-09-17T02:48:23;10.90;99.90
74513;DHT22;62992;52.052;8.550;2022-09-17T02:51:19;10.90;99.90
74513;DHT22;62992;52.052;8.550;2022-09-17T02:54:03;10.90;99.90
74513;DHT22;62992;52.052;8.550;2022-09-17T02:56:57;10.90;99.90
74513;DHT22;62992;52.052;8.550;2022-09-17T02:59:56;10.90;99.90
74513;DHT22;62992;52.052;8.550;2022-09-17T03:02:41;10.80;99.90
74513;DHT22;62992;52.052;8.550;2022-09-17T03:05:08;10.80;99.90
74513;DHT22;62992;52.052;8.550;2022-09-17T03:07:34;10.80;99.90
74513;DHT22;62992;52.052;8.550;2022-09-17T03:10:00;10.80;99.90
74513;DHT22;62992;52.052;8.550;2022-09-17T03:12:26;10.70;99.90
74513;DHT22;62992;52.052;8.550;2022-09-17T03:14:52;10.80;99.90
74513;DHT22;62992;52.052;8.550;2022-09-17T03:17:18;10.80;99.90
74513;DHT22;62992;52.052;8.550;2022-09-17T03:19:43;10.70;99.90
74513;DHT22;62992;52.052;8.550;2022-09-17T03:22:09;10.70;99.90
74513;DHT22;62992;52.052;8.550;2022-09-17T03:24:34;10.60;99.90
74513;DHT22;62992;52.052;8.550;2022-09-17T03:27:00;10.60;99.90
74513;DHT22;62992;52.052;8.550;2022-09-17T03:29:26;10.50;99.90
74513;DHT22;62992;52.052;8.550;2022-09-17T03:31:51;10.60;99.90
74513;DHT22;62992;52.052;8.550;2022-09-17T03:34:17;10.50;99.90
74513;DHT22;62992;52.052;8.550;2022-09-17T03:36:43;10.40;99.90
74513;DHT22;62992;52.052;8.550;2022-09-17T03:39:08;10.40;99.90
74513;DHT22;62992;52.052;8.550;2022-09-17T03:41:34;10.40;99.90
74513;DHT22;62992;52.052;8.550;2022-09-17T03:43:59;10.40;99.90
74513;DHT22;62992;52.052;8.550;2022-09-17T03:46:25;10.30;99.90
74513;DHT22;62992;52.052;8.550;2022-09-17T03:48:51;10.20;99.90
74513;DHT22;62992;52.052;8.550;2022-09-17T03:51:16;10.20;99.90
74513;DHT22;62992;52.052;8.550;2022-09-17T03:53:42;10.20;99.90
74513;DHT22;62992;52.052;8.550;2022-09-17T03:56:07;10.20;99.90
74513;DHT22;62992;52.052;8.550;2022-09-17T03:58:33;10.20;99.90
74513;DHT22;62992;52.052;8.550;2022-09-17T04:00:59;10.20;99.90
74513;DHT22;62992;52.052;8.550;2022-09-17T04:03:28;10.10;99.90
74513;DHT22;62992;52.052;8.550;2022-09-17T04:05:54;10.10;99.90
74513;DHT22;62992;52.052;8.550;2022-09-17T04:08:20;10.10;99.90
74513;DHT22;62992;52.052;8.550;2022-09-17T04:10:46;10.10;99.90
74513;DHT22;62992;52.052;8.550;2022-09-17T04:13:14;10.10;99.90
74513;DHT22;62992;52.052;8.550;2022-09-17T04:15:40;10.10;99.90
74513;DHT22;62992;52.052;8.550;2022-09-17T04:18:06;10.00;99.90
74513;DHT22;62992;52.052;8.550;2022-09-17T04:20:31;10.00;99.90
74513;DHT22;62992;52.052;8.550;2022-09-17T04:22:57;10.00;99.90
74513;DHT22;62992;52.052;8.550;2022-09-17T04:25:23;9.90;99.90
74513;DHT22;62992;52.052;8.550;2022-09-17T04:27:49;9.90;99.90
74513;DHT22;62992;52.052;8.550;2022-09-17T04:30:15;10.00;99.90
74513;DHT22;62992;52.052;8.550;2022-09-17T04:32:45;9.90;99.90
74513;DHT22;62992;52.052;8.550;2022-09-17T04:35:11;9.90;99.90
74513;DHT22;62992;52.052;8.550;2022-09-17T04:37:37;9.90;99.90
74513;DHT22;62992;52.052;8.550;2022-09-17T04:40:03;9.80;99.90
74513;DHT22;62992;52.052;8.550;2022-09-17T04:42:29;9.80;99.90
74513;DHT22;62992;52.052;8.550;2022-09-17T04:44:55;9.80;99.90
74513;DHT22;62992;52.052;8.550;2022-09-17T04:47:20;9.80;99.90
74513;DHT22;62992;52.052;8.550;2022-09-17T04:49:46;9.70;99.90
74513;DHT22;62992;52.052;8.550;2022-09-17T04:52:12;9.70;99.90
74513;DHT22;62992;52.052;8.550;2022-09-17T04:54:38;9.70;99.90
74513;DHT22;62992;52.052;8.550;2022-09-17T04:57:03;9.80;99.90
74513;DHT22;62992;52.052;8.550;2022-09-17T04:59:29;9.80;99.90
74513;DHT22;62992;52.052;8.550;2022-09-17T05:01:55;9.70;99.90
74513;DHT22;62992;52.052;8.550;2022-09-17T05:04:20;9.70;99.90
74513;DHT22;62992;52.052;8.550;2022-09-17T05:06:46;9.70;99.90
74513;DHT22;62992;52.052;8.550;2022-09-17T05:09:12;9.70;99.90
74513;DHT22;62992;52.052;8.550;2022-09-17T05:11:39;9.70;99.90
74513;DHT22;62992;52.052;8.550;2022-09-17T05:14:04;9.70;99.90
74513;DHT22;62992;52.052;8.550;2022-09-17T05:16:30;9.60;99.90
74513;DHT22;62992;52.052;8.550;2022-09-17T05:18:55;9.60;99.90
74513;DHT22;62992;52.052;8.550;2022-09-17T05:21:22;9.50;99.90
74513;DHT22;62992;52.052;8.550;2022-09-17T05:23:48;9.60;99.90
74513;DHT22;62992;52.052;8.550;2022-09-17T05:26:13;9.50;99.90
74513;DHT22;62992;52.052;8.550;2022-09-17T05:28:40;9.60;99.90
74513;DHT22;62992;52.052;8.550;2022-09-17T05:31:05;9.60;99.90
74513;DHT22;62992;52.052;8.550;2022-09-17T05:33:31;9.70;99.90
74513;DHT22;62992;52.052;8.550;2022-09-17T05:35:56;9.60;99.90
74513;DHT22;62992;52.052;8.550;2022-09-17T05:38:22;9.60;99.90
74513;DHT22;62992;52.052;8.550;2022-09-17T05:40:48;9.60;99.90
74513;DHT22;62992;52.052;8.550;2022-09-17T05:43:14;9.70;99.90
74513;DHT22;62992;52.052;8.550;2022-09-17T05:45:40;9.60;99.90
74513;DHT22;62992;52.052;8.550;2022-09-17T05:48:08;9.70;99.90
74513;DHT22;62992;52.052;8.550;2022-09-17T05:50:34;9.70;99.90
74513;DHT22;62992;52.052;8.550;2022-09-17T05:53:09;9.70;99.90
74513;DHT22;62992;52.052;8.550;2022-09-17T05:55:35;9.70;99.90
74513;DHT22;62992;52.052;8.550;2022-09-17T05:58:26;9.70;99.90
74513;DHT22;62992;52.052;8.550;2022-09-17T06:00:51;9.70;99.90
74513;DHT22;62992;52.052;8.550;2022-09-17T06:03:18;9.70;99.90
74513;DHT22;62992;52.052;8.550;2022-09-17T06:05:53;9.80;99.90
74513;DHT22;62992;52.052;8.550;2022-09-17T06:08:19;9.90;99.90
74513;DHT22;62992;52.052;8.550;2022-09-17T06:10:44;9.90;99.90
74513;DHT22;62992;52.052;8.550;2022-09-17T06:13:10;10.00;99.90
74513;DHT22;62992;52.052;8.550;2022-09-17T06:15:35;10.00;99.90
74513;DHT22;62992;52.052;8.550;2022-09-17T06:18:01;10.10;99.90
74513;DHT22;62992;52.052;8.550;2022-09-17T06:20:26;10.30;99.90
74513;DHT22;62992;52.052;8.550;2022-09-17T06:22:56;10.50;99.90
74513;DHT22;62992;52.052;8.550;2022-09-17T06:25:22;10.60;99.90
74513;DHT22;62992;52.052;8.550;2022-09-17T06:27:48;10.70;99.90
74513;DHT22;62992;52.052;8.550;2022-09-17T06:30:14;10.70;99.90
74513;DHT22;62992;52.052;8.550;2022-09-17T06:32:39;10.80;99.90
74513;DHT22;62992;52.052;8.550;2022-09-17T06:35:05;11.00;99.90
74513;DHT22;62992;52.052;8.550;2022-09-17T06:37:32;11.00;99.90
74513;DHT22;62992;52.052;8.550;2022-09-17T06:39:57;11.10;99.90
74513;DHT22;62992;52.052;8.550;2022-09-17T06:42:27;11.10;99.90
74513;DHT22;62992;52.052;8.550;2022-09-17T06:44:55;11.20;99.90
74513;DHT22;62992;52.052;8.550;2022-09-17T06:47:23;11.20;99.90
74513;DHT22;62992;52.052;8.550;2022-09-17T06:49:49;11.30;99.90
74513;DHT22;62992;52.052;8.550;2022-09-17T06:52:16;11.50;99.90
74513;DHT22;62992;52.052;8.550;2022-09-17T06:54:41;11.50;99.90
74513;DHT22;62992;52.052;8.550;2022-09-17T06:57:07;11.50;99.90
74513;DHT22;62992;52.052;8.550;2022-09-17T06:59:33;11.60;99.90
74513;DHT22;62992;52.052;8.550;2022-09-17T07:01:58;12.50;99.90
74513;DHT22;62992;52.052;8.550;2022-09-17T07:04:24;12.70;99.90
74513;DHT22;62992;52.052;8.550;2022-09-17T07:06:50;11.90;99.90
74513;DHT22;62992;52.052;8.550;2022-09-17T07:09:15;11.60;99.90
74513;DHT22;62992;52.052;8.550;2022-09-17T07:11:41;14.80;99.90
74513;DHT22;62992;52.052;8.550;2022-09-17T07:14:06;16.00;99.90
74513;DHT22;62992;52.052;8.550;2022-09-17T07:16:32;14.60;99.90
74513;DHT22;62992;52.052;8.550;2022-09-17T07:19:00;16.90;99.90
74513;DHT22;62992;52.052;8.550;2022-09-17T07:21:26;18.60;99.90
74513;DHT22;62992;52.052;8.550;2022-09-17T07:23:51;19.70;99.90
74513;DHT22;62992;52.052;8.550;2022-09-17T07:26:17;19.90;99.90
74513;DHT22;62992;52.052;8.550;2022-09-17T07:28:43;20.90;99.90
74513;DHT22;62992;52.052;8.550;2022-09-17T07:31:10;20.90;99.90
74513;DHT22;62992;52.052;8.550;2022-09-17T07:33:36;21.50;99.90
74513;DHT22;62992;52.052;8.550;2022-09-17T07:36:05;21.30;99.90
74513;DHT22;62992;52.052;8.550;2022-09-17T07:38:32;21.60;99.40
74513;DHT22;62992;52.052;8.550;2022-09-17T07:43:29;21.40;99.90
74513;DHT22;62992;52.052;8.550;2022-09-17T07:45:59;21.60;99.40
74513;DHT22;62992;52.052;8.550;2022-09-17T07:48:26;21.80;99.00
74513;DHT22;62992;52.052;8.550;2022-09-17T07:50:52;20.10;99.60
74513;DHT22;62992;52.052;8.550;2022-09-17T07:53:18;18.40;99.90
74513;DHT22;62992;52.052;8.550;2022-09-17T07:55:53;18.30;99.90
74513;DHT22;62992;52.052;8.550;2022-09-17T07:58:20;18.90;99.90
74513;DHT22;62992;52.052;8.550;2022-09-17T08:00:46;19.20;99.90
74513;DHT22;62992;52.052;8.550;2022-09-17T08:03:13;19.30;99.90
74513;DHT22;62992;52.052;8.550;2022-09-17T08:05:38;19.80;99.90
74513;DHT22;62992;52.052;8.550;2022-09-17T08:08:04;19.50;99.90
74513;DHT22;62992;52.052;8.550;2022-09-17T08:10:30;19.10;99.90
74513;DHT22;62992;52.052;8.550;2022-09-17T08:12:56;18.80;99.90
74513;DHT22;62992;52.052;8.550;2022-09-17T08:15:23;18.70;99.90
74513;DHT22;62992;52.052;8.550;2022-09-17T08:17:49;18.40;99.90
74513;DHT22;62992;52.052;8.550;2022-09-17T08:20:16;18.30;99.90
74513;DHT22;62992;52.052;8.550;2022-09-17T08:22:42;18.20;99.90
74513;DHT22;62992;52.052;8.550;2022-09-17T08:25:09;17.90;99.90
74513;DHT22;62992;52.052;8.550;2022-09-17T08:27:35;17.70;99.90
74513;DHT22;62992;52.052;8.550;2022-09-17T08:30:04;17.60;99.90
74513;DHT22;62992;52.052;8.550;2022-09-17T08:32:30;17.10;99.90
74513;DHT22;62992;52.052;8.550;2022-09-17T08:34:55;17.10;99.90
74513;DHT22;62992;52.052;8.550;2022-09-17T08:37:21;16.90;99.90
74513;DHT22;62992;52.052;8.550;2022-09-17T08:39:47;16.70;99.90
74513;DHT22;62992;52.052;8.550;2022-09-17T08:44:46;16.80;99.90
74513;DHT22;62992;52.052;8.550;2022-09-17T08:47:39;16.80;99.90
74513;DHT22;62992;52.052;8.550;2022-09-17T08:50:13;16.90;99.90
74513;DHT22;62992;52.052;8.550;2022-09-17T08:53:22;17.00;99.90
74513;DHT22;62992;52.052;8.550;2022-09-17T08:56:17;17.00;99.90
74513;DHT22;62992;52.052;8.550;2022-09-17T08:58:56;17.40;99.90
74513;DHT22;62992;52.052;8.550;2022-09-17T09:09:27;16.80;99.90
74513;DHT22;62992;52.052;8.550;2022-09-17T09:12:03;16.80;99.90
74513;DHT22;62992;52.052;8.550;2022-09-17T09:14:54;17.00;99.90
74513;DHT22;62992;52.052;8.550;2022-09-17T09:17:21;17.20;99.90
74513;DHT22;62992;52.052;8.550;2022-09-17T09:19:50;17.40;99.90
74513;DHT22;62992;52.052;8.550;2022-09-17T09:28:06;17.70;99.90
74513;DHT22;62992;52.052;8.550;2022-09-17T09:33:17;17.00;99.90
74513;DHT22;62992;52.052;8.550;2022-09-17T09:35:44;17.00;99.90
74513;DHT22;62992;52.052;8.550;2022-09-17T09:38:37;17.00;99.90
74513;DHT22;62992;52.052;8.550;2022-09-17T09:41:19;17.20;99.90
74513;DHT22;62992;52.052;8.550;2022-09-17T09:44:08;17.70;99.90
74513;DHT22;62992;52.052;8.550;2022-09-17T09:47:18;17.70;99.90
74513;DHT22;62992;52.052;8.550;2022-09-17T09:55:09;18.10;99.90
74513;DHT22;62992;52.052;8.550;2022-09-17T09:57:45;17.90;99.90
74513;DHT22;62992;52.052;8.550;2022-09-17T10:02:49;18.60;99.90
74513;DHT22;62992;52.052;8.550;2022-09-17T10:05:16;18.40;99.90
74513;DHT22;62992;52.052;8.550;2022-09-17T10:07:43;17.60;99.90
74513;DHT22;62992;52.052;8.550;2022-09-17T10:10:09;17.70;99.90
74513;DHT22;62992;52.052;8.550;2022-09-17T10:12:35;18.20;99.90
74513;DHT22;62992;52.052;8.550;2022-09-17T10:15:24;18.80;99.70
74513;DHT22;62992;52.052;8.550;2022-09-17T10:18:21;18.70;99.80
74513;DHT22;62992;52.052;8.550;2022-09-17T10:23:20;17.00;99.90
74513;DHT22;62992;52.052;8.550;2022-09-17T10:25:46;16.50;99.90
74513;DHT22;62992;52.052;8.550;2022-09-17T10:28:35;17.00;99.90
74513;DHT22;62992;52.052;8.550;2022-09-17T10:31:05;16.70;99.90
74513;DHT22;62992;52.052;8.550;2022-09-17T10:33:55;16.80;99.90
74513;DHT22;62992;52.052;8.550;2022-09-17T10:36:41;16.40;99.90
74513;DHT22;62992;52.052;8.550;2022-09-17T10:42:05;16.30;99.90
74513;DHT22;62992;52.052;8.550;2022-09-17T10:44:37;16.70;99.90
74513;DHT22;62992;52.052;8.550;2022-09-17T10:47:09;16.80;99.90
74513;DHT22;62992;52.052;8.550;2022-09-17T10:49:45;16.50;99.90
74513;DHT22;62992;52.052;8.550;2022-09-17T10:52:34;16.40;99.90
74513;DHT22;62992;52.052;8.550;2022-09-17T10:57:56;18.00;99.90
74513;DHT22;62992;52.052;8.550;2022-09-17T11:00:32;18.20;99.90
74513;DHT22;62992;52.052;8.550;2022-09-17T11:05:54;19.30;98.20
74513;DHT22;62992;52.052;8.550;2022-09-17T11:19:19;18.00;99.90
74513;DHT22;62992;52.052;8.550;2022-09-17T11:25:35;18.00;99.90
74513;DHT22;62992;52.052;8.550;2022-09-17T11:36:18;17.20;99.90
74513;DHT22;62992;52.052;8.550;2022-09-17T11:38:50;18.00;99.90
74513;DHT22;62992;52.052;8.550;2022-09-17T11:41:18;18.20;99.90
74513;DHT22;62992;52.052;8.550;2022-09-17T11:44:14;17.60;99.90
74513;DHT22;62992;52.052;8.550;2022-09-17T11:46:56;16.80;99.90
74513;DHT22;62992;52.052;8.550;2022-09-17T11:49:32;16.80;99.90
74513;DHT22;62992;52.052;8.550;2022-09-17T11:52:03;16.70;99.90
74513;DHT22;62992;52.052;8.550;2022-09-17T11:57:26;16.70;99.90
74513;DHT22;62992;52.052;8.550;2022-09-17T12:00:13;16.60;99.90
74513;DHT22;62992;52.052;8.550;2022-09-17T12:03:03;16.10;99.90
74513;DHT22;62992;52.052;8.550;2022-09-17T12:05:35;16.00;99.90
74513;DHT22;62992;52.052;8.550;2022-09-17T12:13:51;16.10;99.90
74513;DHT22;62992;52.052;8.550;2022-09-17T12:19:18;16.70;99.90
74513;DHT22;62992;52.052;8.550;2022-09-17T12:21:50;16.50;99.90
74513;DHT22;62992;52.052;8.550;2022-09-17T12:24:27;16.10;99.90
74513;DHT22;62992;52.052;8.550;2022-09-17T12:38:11;16.00;99.90
74513;DHT22;62992;52.052;8.550;2022-09-17T12:40:49;16.10;99.90
74513;DHT22;62992;52.052;8.550;2022-09-17T12:49:51;16.40;99.90
74513;DHT22;62992;52.052;8.550;2022-09-17T13:00:59;15.70;99.90
74513;DHT22;62992;52.052;8.550;2022-09-17T13:03:40;15.80;99.90
74513;DHT22;62992;52.052;8.550;2022-09-17T13:08:58;16.10;99.90
74513;DHT22;62992;52.052;8.550;2022-09-17T13:11:37;16.10;99.90
74513;DHT22;62992;52.052;8.550;2022-09-17T13:17:52;16.30;99.90
74513;DHT22;62992;52.052;8.550;2022-09-17T13:20:02;16.50;99.90
74513;DHT22;62992;52.052;8.550;2022-09-17T13:22:31;16.30;99.90
74513;DHT22;62992;52.052;8.550;2022-09-17T13:25:07;16.10;99.90
74513;DHT22;62992;52.052;8.550;2022-09-17T13:27:34;16.20;99.90
74513;DHT22;62992;52.052;8.550;2022-09-17T13:30:07;16.20;99.90
74513;DHT22;62992;52.052;8.550;2022-09-17T13:37:37;15.50;99.90
74513;DHT22;62992;52.052;8.550;2022-09-17T13:40:05;15.40;99.90
74513;DHT22;62992;52.052;8.550;2022-09-17T13:42:47;15.40;99.90
74513;DHT22;62992;52.052;8.550;2022-09-17T13:45:15;15.10;99.90
74513;DHT22;62992;52.052;8.550;2022-09-17T13:47:53;15.00;99.90
74513;DHT22;62992;52.052;8.550;2022-09-17T13:50:39;14.90;99.90
74513;DHT22;62992;52.052;8.550;2022-09-17T13:55:48;14.60;99.90
74513;DHT22;62992;52.052;8.550;2022-09-17T14:21:33;14.10;99.90
74513;DHT22;62992;52.052;8.550;2022-09-17T14:24:12;14.00;99.90
74513;DHT22;62992;52.052;8.550;2022-09-17T14:27:16;13.90;99.90
74513;DHT22;62992;52.052;8.550;2022-09-17T14:30:13;14.10;99.90
74513;DHT22;62992;52.052;8.550;2022-09-17T14:32:53;14.20;99.90
74513;DHT22;62992;52.052;8.550;2022-09-17T14:38:03;14.30;99.90
74513;DHT22;62992;52.052;8.550;2022-09-17T14:40:32;14.30;99.90
74513;DHT22;62992;52.052;8.550;2022-09-17T14:42:59;14.20;99.90
74513;DHT22;62992;52.052;8.550;2022-09-17T14:45:30;14.20;99.90
74513;DHT22;62992;52.052;8.550;2022-09-17T14:50:50;14.50;99.90
74513;DHT22;62992;52.052;8.550;2022-09-17T14:53:17;14.40;99.90
74513;DHT22;62992;52.052;8.550;2022-09-17T14:55:48;14.20;99.90
74513;DHT22;62992;52.052;8.550;2022-09-17T14:58:32;14.00;99.90
74513;DHT22;62992;52.052;8.550;2022-09-17T15:00:59;14.00;99.90
74513;DHT22;62992;52.052;8.550;2022-09-17T15:03:25;13.90;99.90
74513;DHT22;62992;52.052;8.550;2022-09-17T15:05:51;14.00;99.90
74513;DHT22;62992;52.052;8.550;2022-09-17T15:08:22;14.10;99.90
74513;DHT22;62992;52.052;8.550;2022-09-17T15:10:58;14.10;99.90
74513;DHT22;62992;52.052;8.550;2022-09-17T15:13:34;14.10;99.90
74513;DHT22;62992;52.052;8.550;2022-09-17T15:23:50;14.20;99.90
74513;DHT22;62992;52.052;8.550;2022-09-17T15:26:22;14.10;99.90
74513;DHT22;62992;52.052;8.550;2022-09-17T15:28:49;14.10;99.90
74513;DHT22;62992;52.052;8.550;2022-09-17T15:31:17;14.20;99.90
74513;DHT22;62992;52.052;8.550;2022-09-17T15:33:44;14.10;99.90
74513;DHT22;62992;52.052;8.550;2022-09-17T15:38:47;14.30;99.90
74513;DHT22;62992;52.052;8.550;2022-09-17T15:43:48;14.20;99.90
74513;DHT22;62992;52.052;8.550;2022-09-17T15:46:25;14.20;99.90
74513;DHT22;62992;52.052;8.550;2022-09-17T15:48:56;14.20;99.90
74513;DHT22;62992;52.052;8.550;2022-09-17T15:51:31;14.20;99.90
74513;DHT22;62992;52.052;8.550;2022-09-17T15:54:01;14.30;99.90
74513;DHT22;62992;52.052;8.550;2022-09-17T15:56:37;14.20;99.90
74513;DHT22;62992;52.052;8.550;2022-09-17T15:59:29;14.10;99.90
74513;DHT22;62992;52.052;8.550;2022-09-17T16:01:57;14.00;99.90
74513;DHT22;62992;52.052;8.550;2022-09-17T16:06:55;13.90;99.90
74513;DHT22;62992;52.052;8.550;2022-09-17T16:12:01;13.90;99.90
74513;DHT22;62992;52.052;8.550;2022-09-17T16:14:26;13.90;99.90
74513;DHT22;62992;52.052;8.550;2022-09-17T16:16:52;13.90;99.90
74513;DHT22;62992;52.052;8.550;2022-09-17T16:19:19;13.70;99.90
74513;DHT22;62992;52.052;8.550;2022-09-17T16:21:45;13.70;99.90
74513;DHT22;62992;52.052;8.550;2022-09-17T16:24:10;13.70;99.90
74513;DHT22;62992;52.052;8.550;2022-09-17T16:26:36;13.70;99.90
74513;DHT22;62992;52.052;8.550;2022-09-17T16:29:05;13.60;99.90
74513;DHT22;62992;52.052;8.550;2022-09-17T16:31:32;13.60;99.90
74513;DHT22;62992;52.052;8.550;2022-09-17T16:33:58;13.70;99.90
74513;DHT22;62992;52.052;8.550;2022-09-17T16:36:23;13.60;99.90
74513;DHT22;62992;52.052;8.550;2022-09-17T16:38:49;13.80;99.90
74513;DHT22;62992;52.052;8.550;2022-09-17T16:41:14;13.70;99.90
74513;DHT22;62992;52.052;8.550;2022-09-17T16:43:40;13.80;99.90
74513;DHT22;62992;52.052;8.550;2022-09-17T16:46:08;13.70;99.90
74513;DHT22;62992;52.052;8.550;2022-09-17T16:48:37;13.70;99.90
74513;DHT22;62992;52.052;8.550;2022-09-17T16:51:07;13.70;99.90
74513;DHT22;62992;52.052;8.550;2022-09-17T16:53:33;13.70;99.90
74513;DHT22;62992;52.052;8.550;2022-09-17T16:55:59;13.60;99.90
74513;DHT22;62992;52.052;8.550;2022-09-17T16:58:24;13.50;99.90
74513;DHT22;62992;52.052;8.550;2022-09-17T17:00:50;13.40;99.90
74513;DHT22;62992;52.052;8.550;2022-09-17T17:03:16;13.40;99.90
74513;DHT22;62992;52.052;8.550;2022-09-17T17:05:41;13.20;99.90
74513;DHT22;62992;52.052;8.550;2022-09-17T17:08:08;13.20;99.90
74513;DHT22;62992;52.052;8.550;2022-09-17T17:10:36;13.10;99.90
74513;DHT22;62992;52.052;8.550;2022-09-17T17:13:02;13.00;99.90
74513;DHT22;62992;52.052;8.550;2022-09-17T17:15:28;13.00;99.90
74513;DHT22;62992;52.052;8.550;2022-09-17T17:17:54;12.90;99.90
74513;DHT22;62992;52.052;8.550;2022-09-17T17:20:20;12.90;99.90
74513;DHT22;62992;52.052;8.550;2022-09-17T17:22:46;12.90;99.90
74513;DHT22;62992;52.052;8.550;2022-09-17T17:25:12;12.90;99.90
74513;DHT22;62992;52.052;8.550;2022-09-17T17:27:39;12.90;99.90
74513;DHT22;62992;52.052;8.550;2022-09-17T17:30:06;12.80;99.90
74513;DHT22;62992;52.052;8.550;2022-09-17T17:32:34;12.80;99.90
74513;DHT22;62992;52.052;8.550;2022-09-17T17:34:59;12.70;99.90
74513;DHT22;62992;52.052;8.550;2022-09-17T17:37:25;12.70;99.90
74513;DHT22;62992;52.052;8.550;2022-09-17T17:39:51;12.70;99.90
74513;DHT22;62992;52.052;8.550;2022-09-17T17:42:16;12.60;99.90
74513;DHT22;62992;52.052;8.550;2022-09-17T17:44:42;12.60;99.90
74513;DHT22;62992;52.052;8.550;2022-09-17T17:47:08;12.60;99.90
74513;DHT22;62992;52.052;8.550;2022-09-17T17:49:33;12.50;99.90
74513;DHT22;62992;52.052;8.550;2022-09-17T17:51:59;12.40;99.90
74513;DHT22;62992;52.052;8.550;2022-09-17T17:54:25;12.30;99.90
74513;DHT22;62992;52.052;8.550;2022-09-17T17:56:53;12.30;99.90
74513;DHT22;62992;52.052;8.550;2022-09-17T17:59:18;12.20;99.90
74513;DHT22;62992;52.052;8.550;2022-09-17T18:01:44;12.30;99.90
74513;DHT22;62992;52.052;8.550;2022-09-17T18:04:09;12.20;99.90
74513;DHT22;62992;52.052;8.550;2022-09-17T18:06:35;12.20;99.90
74513;DHT22;62992;52.052;8.550;2022-09-17T18:09:01;12.30;99.90
74513;DHT22;62992;52.052;8.550;2022-09-17T18:11:28;12.30;99.90
74513;DHT22;62992;52.052;8.550;2022-09-17T18:13:55;12.30;99.90
74513;DHT22;62992;52.052;8.550;2022-09-17T18:16:22;12.20;99.90
74513;DHT22;62992;52.052;8.550;2022-09-17T18:18:48;12.20;99.90
74513;DHT22;62992;52.052;8.550;2022-09-17T18:21:16;12.20;99.90
74513;DHT22;62992;52.052;8.550;2022-09-17T18:23:43;12.20;99.90
74513;DHT22;62992;52.052;8.550;2022-09-17T18:26:14;12.10;99.90
74513;DHT22;62992;52.052;8.550;2022-09-17T18:28:40;12.10;99.90
74513;DHT22;62992;52.052;8.550;2022-09-17T18:31:07;12.10;99.90
74513;DHT22;62992;52.052;8.550;2022-09-17T18:33:33;12.00;99.90
74513;DHT22;62992;52.052;8.550;2022-09-17T18:36:04;12.00;99.90
74513;DHT22;62992;52.052;8.550;2022-09-17T18:38:30;11.90;99.90
74513;DHT22;62992;52.052;8.550;2022-09-17T18:41:04;11.90;99.90
74513;DHT22;62992;52.052;8.550;2022-09-17T18:43:32;11.80;99.90
74513;DHT22;62992;52.052;8.550;2022-09-17T18:45:58;11.80;99.90
74513;DHT22;62992;52.052;8.550;2022-09-17T18:48:25;11.80;99.90
74513;DHT22;62992;52.052;8.550;2022-09-17T18:53:21;11.80;99.90
74513;DHT22;62992;52.052;8.550;2022-09-17T18:55:47;11.70;99.90
74513;DHT22;62992;52.052;8.550;2022-09-17T18:58:12;11.70;99.90
74513;DHT22;62992;52.052;8.550;2022-09-17T19:00:41;11.60;99.90
74513;DHT22;62992;52.052;8.550;2022-09-17T19:03:07;11.60;99.90
74513;DHT22;62992;52.052;8.550;2022-09-17T19:05:33;11.60;99.90
74513;DHT22;62992;52.052;8.550;2022-09-17T19:07:58;11.60;99.90
74513;DHT22;62992;52.052;8.550;2022-09-17T19:10:24;11.60;99.90
74513;DHT22;62992;52.052;8.550;2022-09-17T19:12:50;11.50;99.90
74513;DHT22;62992;52.052;8.550;2022-09-17T19:15:16;11.50;99.90